createdAt,value
2022-08-17T00:02:21.173Z,21.47
2022-08-17T00:04:40.308Z,21.50
2022-08-17T00:06:54.599Z,21.59
2022-08-17T00:09:08.558Z,21.70
2022-08-17T00:11:24.004Z,21.79
2022-08-17T00:13:39.763Z,21.81
2022-08-17T00:15:53.191Z,21.81
2022-08-17T00:19:06.808Z,21.78
2022-08-17T00:20:40.165Z,21.75
2022-08-17T00:22:53.569Z,21.80
2022-08-17T00:25:08.409Z,21.86
2022-08-17T00:27:21.601Z,21.89
2022-08-17T00:29:34.748Z,21.86
2022-08-17T00:31:48.010Z,21.84
2022-08-17T00:34:01.403Z,21.87
2022-08-17T00:36:15.223Z,21.93
2022-08-17T00:38:29.212Z,21.97
2022-08-17T00:40:45.109Z,22.04
2022-08-17T00:42:58.575Z,22.17
2022-08-17T00:45:14.335Z,22.26
2022-08-17T00:47:27.786Z,22.25
2022-08-17T00:49:40.912Z,22.30
2022-08-17T00:51:58.666Z,22.35
2022-08-17T00:54:14.362Z,22.40
2022-08-17T00:56:32.092Z,22.43
2022-08-17T00:58:45.402Z,22.44
2022-08-17T01:01:02.804Z,22.32
2022-08-17T01:03:20.923Z,22.14
2022-08-17T01:05:42.246Z,22.02
2022-08-17T01:07:57.213Z,22.05
2022-08-17T01:10:59.967Z,22.10
2022-08-17T01:12:46.973Z,22.15
2022-08-17T01:15:00.103Z,22.30
2022-08-17T01:17:13.671Z,22.32
2022-08-17T01:19:29.400Z,22.33
2022-08-17T01:21:46.633Z,22.29
2022-08-17T01:23:59.926Z,22.18
2022-08-17T01:26:13.242Z,22.19
2022-08-17T01:28:52.556Z,22.23
2022-08-17T01:31:02.762Z,22.28
2022-08-17T01:33:16.016Z,22.27
2022-08-17T01:35:29.392Z,22.21
2022-08-17T01:37:48.315Z,22.17
2022-08-17T01:40:05.991Z,22.08
2022-08-17T01:42:24.723Z,22.04
2022-08-17T01:44:38.543Z,22.00
2022-08-17T01:46:51.913Z,22.01
2022-08-17T01:49:09.008Z,22.05
2022-08-17T01:51:22.991Z,22.03
2022-08-17T01:53:45.653Z,21.96
2022-08-17T01:56:03.563Z,21.87
2022-08-17T01:58:17.079Z,21.84
2022-08-17T02:00:47.828Z,21.80
2022-08-17T02:03:03.855Z,21.76
2022-08-17T02:05:17.363Z,21.78
2022-08-17T02:07:30.659Z,21.81
2022-08-17T02:09:45.219Z,21.75
2022-08-17T02:12:37.852Z,21.69
2022-08-17T02:14:40.457Z,21.69
2022-08-17T02:16:53.582Z,21.70
2022-08-17T02:19:06.773Z,21.72
2022-08-17T02:21:20.568Z,21.72
2022-08-17T02:23:36.701Z,21.72
2022-08-17T02:25:51.671Z,21.72
2022-08-17T02:28:05.203Z,21.71
2022-08-17T02:30:59.427Z,21.70
2022-08-17T02:32:54.644Z,21.65
2022-08-17T02:35:08.296Z,21.64
2022-08-17T02:37:21.741Z,21.58
2022-08-17T02:39:34.931Z,21.47
2022-08-17T02:41:48.661Z,21.36
2022-08-17T02:44:01.895Z,21.29
2022-08-17T02:46:15.776Z,21.21
2022-08-17T02:48:31.127Z,21.14
2022-08-17T02:50:45.094Z,21.03
2022-08-17T02:53:02.036Z,20.94
2022-08-17T02:55:19.827Z,20.87
2022-08-17T02:57:33.048Z,20.84
2022-08-17T02:59:49.076Z,20.82
2022-08-17T03:02:02.770Z,20.75
2022-08-17T03:04:16.017Z,20.70
2022-08-17T03:06:30.394Z,20.65
2022-08-17T03:08:43.844Z,20.57
2022-08-17T03:10:57.165Z,20.52
2022-08-17T03:13:10.465Z,20.47
2022-08-17T03:15:27.967Z,20.40
2022-08-17T03:17:41.075Z,20.32
2022-08-17T03:19:54.199Z,20.24
2022-08-17T03:22:34.762Z,20.16
2022-08-17T03:24:41.483Z,20.10
2022-08-17T03:26:54.610Z,20.03
2022-08-17T03:29:07.727Z,19.94
2022-08-17T03:31:22.741Z,19.90
2022-08-17T03:33:36.018Z,19.84
2022-08-17T03:35:49.895Z,19.80
2022-08-17T03:38:04.170Z,19.75
2022-08-17T03:40:34.602Z,19.70
2022-08-17T03:42:54.563Z,19.64
2022-08-17T03:45:09.384Z,19.59
2022-08-17T03:47:39.215Z,19.53
2022-08-17T03:50:10.718Z,19.49
2022-08-17T03:52:40.160Z,19.43
2022-08-17T03:55:09.448Z,19.42
2022-08-17T03:57:22.696Z,19.37
2022-08-17T03:59:36.825Z,19.35
2022-08-17T04:01:51.610Z,19.31
2022-08-17T04:04:06.509Z,19.29
2022-08-17T04:06:19.770Z,19.25
2022-08-17T04:08:33.139Z,19.22
2022-08-17T04:10:46.683Z,19.21
2022-08-17T04:13:01.254Z,19.19
2022-08-17T04:15:15.816Z,19.18
2022-08-17T04:17:31.387Z,19.17
2022-08-17T04:19:44.909Z,19.14
2022-08-17T04:21:58.990Z,19.11
2022-08-17T04:24:12.753Z,19.07
2022-08-17T04:26:53.063Z,19.04
2022-08-17T04:28:59.828Z,19.04
2022-08-17T04:31:13.278Z,19.00
2022-08-17T04:33:28.545Z,18.96
2022-08-17T04:35:44.157Z,18.92
2022-08-17T04:37:57.572Z,18.89
2022-08-17T04:40:28.474Z,18.86
2022-08-17T04:42:41.794Z,18.84
2022-08-17T04:44:55.033Z,18.80
2022-08-17T04:47:08.582Z,18.77
2022-08-17T04:49:23.968Z,18.74
2022-08-17T04:51:39.119Z,18.71
2022-08-17T04:54:01.942Z,18.67
2022-08-17T04:56:19.014Z,18.64
2022-08-17T04:58:32.505Z,18.60
2022-08-17T05:00:46.108Z,18.57
2022-08-17T05:03:00.452Z,18.53
2022-08-17T05:05:14.725Z,18.50
2022-08-17T05:07:31.462Z,18.49
2022-08-17T05:09:45.139Z,18.47
2022-08-17T05:11:58.593Z,18.44
2022-08-17T05:14:11.882Z,18.41
2022-08-17T05:16:26.035Z,18.40
2022-08-17T05:18:40.334Z,18.37
2022-08-17T05:20:53.716Z,18.36
2022-08-17T05:23:09.208Z,18.35
2022-08-17T05:25:25.876Z,18.33
2022-08-17T05:27:40.164Z,18.33
2022-08-17T05:29:55.265Z,18.32
2022-08-17T05:32:38.357Z,18.30
2022-08-17T05:34:50.004Z,18.29
2022-08-17T05:37:03.224Z,18.26
2022-08-17T05:39:17.482Z,18.24
2022-08-17T05:41:30.959Z,18.22
2022-08-17T05:43:45.727Z,18.21
2022-08-17T05:46:05.805Z,18.19
2022-08-17T05:48:19.413Z,18.16
2022-08-17T05:50:37.301Z,18.15
2022-08-17T05:52:59.428Z,18.13
2022-08-17T05:55:23.317Z,18.10
2022-08-17T05:57:53.727Z,18.06
2022-08-17T06:00:16.053Z,18.03
2022-08-17T06:02:47.841Z,18.01
2022-08-17T06:05:15.991Z,17.99
2022-08-17T06:07:40.054Z,17.98
2022-08-17T06:10:04.514Z,17.98
2022-08-17T06:12:35.529Z,17.96
2022-08-17T06:15:12.280Z,17.94
2022-08-17T06:17:28.270Z,17.90
2022-08-17T06:19:47.399Z,17.88
2022-08-17T06:22:01.801Z,17.86
2022-08-17T06:24:28.594Z,17.83
2022-08-17T06:26:46.631Z,17.80
2022-08-17T06:29:03.874Z,17.78
2022-08-17T06:31:24.456Z,17.76
2022-08-17T06:33:40.991Z,17.74
2022-08-17T06:36:04.996Z,17.73
2022-08-17T06:38:37.362Z,17.72
2022-08-17T06:41:04.899Z,17.71
2022-08-17T06:43:33.861Z,17.67
2022-08-17T06:45:51.692Z,17.67
2022-08-17T06:48:10.484Z,17.65
2022-08-17T06:50:28.617Z,17.63
2022-08-17T06:52:48.528Z,17.61
2022-08-17T06:55:05.410Z,17.58
2022-08-17T06:57:23.402Z,17.53
2022-08-17T06:59:54.688Z,17.49
2022-08-17T07:02:13.509Z,17.43
2022-08-17T07:04:32.265Z,17.39
2022-08-17T07:06:50.689Z,17.37
2022-08-17T07:09:07.599Z,17.37
2022-08-17T07:11:24.030Z,17.38
2022-08-17T07:13:49.202Z,17.37
2022-08-17T07:16:14.318Z,17.34
2022-08-17T07:18:29.422Z,17.32
2022-08-17T07:20:46.812Z,17.32
2022-08-17T07:23:04.875Z,17.32
2022-08-17T07:25:20.894Z,17.34
2022-08-17T07:27:36.605Z,17.37
2022-08-17T07:29:57.845Z,17.38
2022-08-17T07:32:11.104Z,17.37
2022-08-17T07:34:24.877Z,17.37
2022-08-17T07:36:43.242Z,17.37
2022-08-17T07:39:03.185Z,17.37
2022-08-17T07:41:16.378Z,17.35
2022-08-17T07:43:32.497Z,17.32
2022-08-17T07:46:22.651Z,17.32
2022-08-17T07:48:38.685Z,17.34
2022-08-17T07:50:54.395Z,17.37
2022-08-17T07:53:23.375Z,17.38
2022-08-17T07:55:41.652Z,17.37
2022-08-17T07:58:02.035Z,17.37
2022-08-17T08:00:31.713Z,17.36
2022-08-17T08:02:48.700Z,17.35
2022-08-17T08:05:14.218Z,17.34
2022-08-17T08:07:53.274Z,17.32
2022-08-17T08:10:08.565Z,17.30
2022-08-17T08:12:38.057Z,17.26
2022-08-17T08:14:59.012Z,17.24
2022-08-17T08:17:13.224Z,17.22
2022-08-17T08:19:27.431Z,17.20
2022-08-17T08:21:48.354Z,17.18
2022-08-17T08:24:10.804Z,17.16
2022-08-17T08:26:33.144Z,17.14
2022-08-17T08:28:53.652Z,17.12
2022-08-17T08:31:16.140Z,17.10
2022-08-17T08:33:46.629Z,17.08
2022-08-17T08:36:06.575Z,17.05
2022-08-17T08:38:30.407Z,17.03
2022-08-17T08:41:05.250Z,17.01
2022-08-17T08:43:30.441Z,16.98
2022-08-17T08:45:59.133Z,16.95
2022-08-17T08:48:56.244Z,16.92
2022-08-17T08:51:08.957Z,16.90
2022-08-17T08:53:35.620Z,16.89
2022-08-17T08:55:56.480Z,16.89
2022-08-17T08:58:40.454Z,16.89
2022-08-17T09:00:54.552Z,16.88
2022-08-17T09:03:51.779Z,16.87
2022-08-17T09:06:28.720Z,16.86
2022-08-17T09:09:11.636Z,16.87
2022-08-17T09:11:35.013Z,16.87
2022-08-17T09:14:21.585Z,16.87
2022-08-17T09:16:41.661Z,16.87
2022-08-17T09:19:00.179Z,16.89
2022-08-17T09:21:23.030Z,16.89
2022-08-17T09:23:43.306Z,16.90
2022-08-17T09:26:02.127Z,16.88
2022-08-17T09:28:25.576Z,16.86
2022-08-17T09:30:46.978Z,16.84
2022-08-17T09:33:05.715Z,16.83
2022-08-17T09:35:24.085Z,16.84
2022-08-17T09:37:43.405Z,16.84
2022-08-17T09:40:07.417Z,16.83
2022-08-17T09:42:27.042Z,16.81
2022-08-17T09:44:47.476Z,16.81
2022-08-17T09:47:05.161Z,16.80
2022-08-17T09:49:25.259Z,16.77
2022-08-17T09:51:43.783Z,16.76
2022-08-17T09:54:09.511Z,16.76
2022-08-17T09:57:11.527Z,16.74
2022-08-17T09:59:43.786Z,16.72
2022-08-17T10:02:05.731Z,16.69
2022-08-17T10:04:35.679Z,16.65
2022-08-17T10:06:56.580Z,16.63
2022-08-17T10:09:18.021Z,16.61
2022-08-17T10:11:50.408Z,16.59
2022-08-17T10:14:35.994Z,16.58
2022-08-17T10:16:49.355Z,16.56
2022-08-17T10:19:14.923Z,16.53
2022-08-17T10:21:45.600Z,16.53
2022-08-17T10:24:21.781Z,16.53
2022-08-17T10:26:40.385Z,16.50
2022-08-17T10:29:18.036Z,16.45
2022-08-17T10:31:36.351Z,16.40
2022-08-17T10:34:00.457Z,16.37
2022-08-17T10:36:22.515Z,16.36
2022-08-17T10:38:53.224Z,16.34
2022-08-17T10:41:10.211Z,16.30
2022-08-17T10:44:35.373Z,16.25
2022-08-17T10:46:31.429Z,16.19
2022-08-17T10:48:45.555Z,16.17
2022-08-17T10:51:09.462Z,16.17
2022-08-17T10:53:50.600Z,16.15
2022-08-17T10:56:26.927Z,16.14
2022-08-17T10:58:50.592Z,16.11
2022-08-17T11:01:06.898Z,16.10
2022-08-17T11:03:27.175Z,16.08
2022-08-17T11:06:07.804Z,16.05
2022-08-17T11:08:52.392Z,16.02
2022-08-17T11:11:21.501Z,15.98
2022-08-17T11:13:41.876Z,15.93
2022-08-17T11:16:10.084Z,15.88
2022-08-17T11:18:51.947Z,15.84
2022-08-17T11:21:27.513Z,15.81
2022-08-17T11:24:06.666Z,15.78
2022-08-17T11:26:31.481Z,15.77
2022-08-17T11:28:55.506Z,15.76
2022-08-17T11:31:13.362Z,15.76
2022-08-17T11:34:05.934Z,15.76
2022-08-17T11:36:37.722Z,15.78
2022-08-17T11:38:59.022Z,15.77
2022-08-17T11:41:25.184Z,15.77
2022-08-17T11:44:18.498Z,15.75
2022-08-17T11:46:51.060Z,15.72
2022-08-17T11:49:30.250Z,15.69
2022-08-17T11:52:12.766Z,15.67
2022-08-17T11:54:48.280Z,15.64
2022-08-17T11:57:02.037Z,15.64
2022-08-17T11:59:44.932Z,15.64
2022-08-17T12:02:02.806Z,15.64
2022-08-17T12:04:32.847Z,15.65
2022-08-17T12:06:55.761Z,15.65
2022-08-17T12:09:15.674Z,15.65
2022-08-17T12:12:10.987Z,15.65
2022-08-17T12:14:08.061Z,15.64
2022-08-17T12:16:23.985Z,15.65
2022-08-17T12:18:40.773Z,15.65
2022-08-17T12:21:06.719Z,15.63
2022-08-17T12:23:26.310Z,15.60
2022-08-17T12:25:46.053Z,15.58
2022-08-17T12:28:05.550Z,15.58
2022-08-17T12:30:23.896Z,15.58
2022-08-17T12:32:41.834Z,15.58
2022-08-17T12:34:55.896Z,15.55
2022-08-17T12:37:20.317Z,15.51
2022-08-17T12:39:34.794Z,15.48
2022-08-17T12:41:50.329Z,15.44
2022-08-17T12:44:05.374Z,15.44
2022-08-17T12:46:23.238Z,15.42
2022-08-17T12:48:38.682Z,15.41
2022-08-17T12:51:12.567Z,15.38
2022-08-17T12:53:29.337Z,15.37
2022-08-17T12:55:44.216Z,15.36
2022-08-17T12:58:00.836Z,15.35
2022-08-17T13:00:21.121Z,15.33
2022-08-17T13:02:50.976Z,15.30
2022-08-17T13:05:05.501Z,15.28
2022-08-17T13:07:28.564Z,15.28
2022-08-17T13:09:41.884Z,15.28
2022-08-17T13:12:00.272Z,15.28
2022-08-17T13:14:19.515Z,15.26
2022-08-17T13:16:34.826Z,15.22
2022-08-17T13:18:50.992Z,15.18
2022-08-17T13:21:04.928Z,15.17
2022-08-17T13:23:26.121Z,15.15
2022-08-17T13:25:39.711Z,15.15
2022-08-17T13:27:53.873Z,15.15
2022-08-17T13:30:10.602Z,15.15
2022-08-17T13:32:27.389Z,15.14
2022-08-17T13:35:13.152Z,15.14
2022-08-17T13:37:40.713Z,15.15
2022-08-17T13:39:57.115Z,15.17
2022-08-17T13:42:53.134Z,15.18
2022-08-17T13:45:35.637Z,15.17
2022-08-17T13:47:50.021Z,15.17
2022-08-17T13:50:03.130Z,15.18
2022-08-17T13:52:35.938Z,15.19
2022-08-17T13:54:57.568Z,15.21
2022-08-17T13:57:21.390Z,15.24
2022-08-17T13:59:53.422Z,15.26
2022-08-17T14:02:09.554Z,15.30
2022-08-17T14:04:25.628Z,15.33
2022-08-17T14:06:53.051Z,15.37
2022-08-17T14:09:08.858Z,15.42
2022-08-17T14:11:24.795Z,15.46
2022-08-17T14:13:37.777Z,15.50
2022-08-17T14:15:53.957Z,15.54
2022-08-17T14:18:08.957Z,15.57
2022-08-17T14:20:23.911Z,15.61
2022-08-17T14:22:38.781Z,15.63
2022-08-17T14:24:52.490Z,15.65
2022-08-17T14:27:07.345Z,15.68
2022-08-17T14:29:20.454Z,15.69
2022-08-17T14:31:37.432Z,15.71
2022-08-17T14:33:50.721Z,15.73
2022-08-17T14:36:03.841Z,15.77
2022-08-17T14:38:16.788Z,15.81
2022-08-17T14:40:30.488Z,15.86
2022-08-17T14:42:46.045Z,15.92
2022-08-17T14:44:59.912Z,15.98
2022-08-17T14:47:16.040Z,16.05
2022-08-17T14:49:29.568Z,16.11
2022-08-17T14:51:43.755Z,16.17
2022-08-17T14:53:58.336Z,16.23
2022-08-17T14:56:12.064Z,16.28
2022-08-17T14:58:25.156Z,16.31
2022-08-17T15:00:38.797Z,16.35
2022-08-17T15:02:54.914Z,16.38
2022-08-17T15:05:08.949Z,16.44
2022-08-17T15:07:21.922Z,16.49
2022-08-17T15:09:43.010Z,16.54
2022-08-17T15:11:57.809Z,16.59
2022-08-17T15:14:10.809Z,16.64
2022-08-17T15:16:24.577Z,16.71
2022-08-17T15:18:37.808Z,16.79
2022-08-17T15:20:51.822Z,16.89
2022-08-17T15:23:04.843Z,17.00
2022-08-17T15:25:18.894Z,17.10
2022-08-17T15:27:32.563Z,17.20
2022-08-17T15:29:46.375Z,17.29
2022-08-17T15:32:00.925Z,17.40
2022-08-17T15:34:13.916Z,17.46
2022-08-17T15:36:26.991Z,17.55
2022-08-17T15:38:44.491Z,17.64
2022-08-17T15:40:58.767Z,17.70
2022-08-17T15:43:14.384Z,17.76
2022-08-17T15:45:29.594Z,17.86
2022-08-17T15:47:43.867Z,17.95
2022-08-17T15:50:00.044Z,18.02
2022-08-17T15:52:22.087Z,18.09
2022-08-17T15:54:36.031Z,18.16
2022-08-17T15:56:50.625Z,18.25
2022-08-17T15:59:03.820Z,18.34
2022-08-17T16:03:01.200Z,18.43
2022-08-17T16:04:04.655Z,18.51
2022-08-17T16:06:20.719Z,18.62
2022-08-17T16:08:34.287Z,18.72
2022-08-17T16:10:47.359Z,18.82
2022-08-17T16:13:00.809Z,18.92
2022-08-17T16:15:15.657Z,19.02
2022-08-17T16:17:40.330Z,19.06
2022-08-17T16:19:54.174Z,19.12
2022-08-17T16:22:07.795Z,19.13
2022-08-17T16:24:20.823Z,19.09
2022-08-17T16:26:35.215Z,18.99
2022-08-17T16:28:48.260Z,18.98
2022-08-17T16:31:01.450Z,18.99
2022-08-17T16:33:17.844Z,19.01
2022-08-17T16:35:31.468Z,19.05
2022-08-17T16:37:45.465Z,19.10
2022-08-17T16:39:58.835Z,19.10
2022-08-17T16:42:25.630Z,19.14
2022-08-17T16:44:38.630Z,19.16
2022-08-17T16:46:53.203Z,19.21
2022-08-17T16:49:06.171Z,19.36
2022-08-17T16:51:19.162Z,19.47
2022-08-17T16:53:32.231Z,19.44
2022-08-17T16:55:45.413Z,19.35
2022-08-17T16:57:58.384Z,19.23
2022-08-17T17:00:13.833Z,19.16
2022-08-17T17:02:34.404Z,19.09
2022-08-17T17:04:53.931Z,19.03
2022-08-17T17:07:20.543Z,18.98
2022-08-17T17:09:38.047Z,18.89
2022-08-17T17:11:54.852Z,18.83
2022-08-17T17:14:10.398Z,18.88
2022-08-17T17:16:40.549Z,18.98
2022-08-17T17:19:11.554Z,19.02
2022-08-17T17:21:28.899Z,18.96
2022-08-17T17:23:58.688Z,18.91
2022-08-17T17:26:23.112Z,18.85
2022-08-17T17:28:44.482Z,18.87
2022-08-17T17:31:03.080Z,18.92
2022-08-17T17:33:19.672Z,18.92
2022-08-17T17:35:36.781Z,18.88
2022-08-17T17:37:51.154Z,18.90
2022-08-17T17:40:08.733Z,18.93
2022-08-17T17:42:24.455Z,18.96
2022-08-17T17:44:41.963Z,18.91
2022-08-17T17:46:58.068Z,18.85
2022-08-17T17:49:12.353Z,18.90
2022-08-17T17:52:05.222Z,18.95
2022-08-17T17:54:10.030Z,18.95
2022-08-17T17:56:44.132Z,18.97
2022-08-17T17:59:04.985Z,19.02
2022-08-17T18:01:44.945Z,19.08
2022-08-17T18:04:20.878Z,19.16
2022-08-17T18:06:42.695Z,19.22
2022-08-17T18:09:06.480Z,19.33
2022-08-17T18:11:33.050Z,19.44
2022-08-17T18:14:03.916Z,19.65
2022-08-17T18:16:20.365Z,19.84
2022-08-17T18:18:41.571Z,19.99
2022-08-17T18:20:56.362Z,20.07
2022-08-17T18:23:09.889Z,20.19
2022-08-17T18:25:45.850Z,20.36
2022-08-17T18:27:58.849Z,20.46
2022-08-17T18:30:31.357Z,20.55
2022-08-17T18:32:45.643Z,20.62
2022-08-17T18:35:01.886Z,20.64
2022-08-17T18:37:16.162Z,20.65
2022-08-17T18:39:34.096Z,20.65
2022-08-17T18:41:49.320Z,20.51
2022-08-17T18:44:08.158Z,20.49
2022-08-17T18:46:36.228Z,20.54
2022-08-17T18:48:59.818Z,20.50
2022-08-17T18:51:42.358Z,20.48
2022-08-17T18:54:09.746Z,20.52
2022-08-17T18:56:38.561Z,20.51
2022-08-17T18:59:01.645Z,20.50
2022-08-17T19:01:46.904Z,20.55
2022-08-17T19:03:54.791Z,20.66
2022-08-17T19:06:26.072Z,20.69
2022-08-17T19:08:41.557Z,20.79
2022-08-17T19:10:59.008Z,20.91
2022-08-17T19:13:23.299Z,21.00
2022-08-17T19:15:42.780Z,21.11
2022-08-17T19:18:02.467Z,21.20
2022-08-17T19:20:21.654Z,21.29
2022-08-17T19:22:41.960Z,21.36
2022-08-17T19:25:02.756Z,21.49
2022-08-17T19:27:24.029Z,21.72
2022-08-17T19:29:44.523Z,21.91
2022-08-17T19:31:57.885Z,22.00
2022-08-17T19:34:10.816Z,22.10
2022-08-17T19:36:36.628Z,22.26
2022-08-17T19:38:57.932Z,22.49
2022-08-17T19:41:16.795Z,22.73
2022-08-17T19:43:42.139Z,22.99
2022-08-17T19:46:05.037Z,23.11
2022-08-17T19:48:28.100Z,23.15
2022-08-17T19:50:45.451Z,23.29
2022-08-17T19:53:08.602Z,23.46
2022-08-17T19:55:33.795Z,23.52
2022-08-17T19:57:57.360Z,23.60
2022-08-17T20:00:14.555Z,23.46
2022-08-17T20:02:41.103Z,23.28
2022-08-17T20:04:56.636Z,23.11
2022-08-17T20:07:11.866Z,23.01
2022-08-17T20:09:35.135Z,22.97
2022-08-17T20:11:52.978Z,22.82
2022-08-17T20:14:13.208Z,22.65
2022-08-17T20:16:26.536Z,22.48
2022-08-17T20:18:47.699Z,22.31
2022-08-17T20:21:04.845Z,22.23
2022-08-17T20:23:27.027Z,22.22
2022-08-17T20:25:46.911Z,22.17
2022-08-17T20:28:06.286Z,22.08
2022-08-17T20:30:38.729Z,22.05
2022-08-17T20:33:00.447Z,22.04
2022-08-17T20:35:28.789Z,22.11
2022-08-17T20:37:45.973Z,22.26
2022-08-17T20:40:23.895Z,22.34
2022-08-17T20:42:38.692Z,22.40
2022-08-17T20:44:53.127Z,22.54
2022-08-17T20:47:14.009Z,22.59
2022-08-17T20:49:33.586Z,22.68
2022-08-17T20:52:00.754Z,22.82
2022-08-17T20:54:56.286Z,22.90
2022-08-17T20:57:14.307Z,23.03
2022-08-17T21:00:03.931Z,23.18
2022-08-17T21:02:26.022Z,23.38
2022-08-17T21:05:01.396Z,23.55
2022-08-17T21:07:43.401Z,23.64
2022-08-17T21:10:11.315Z,23.89
2022-08-17T21:12:49.201Z,24.07
2022-08-17T21:15:07.124Z,24.30
2022-08-17T21:17:43.092Z,24.50
2022-08-17T21:20:11.462Z,24.77
2022-08-17T21:22:35.866Z,24.97
2022-08-17T21:25:00.626Z,25.14
2022-08-17T21:27:23.868Z,25.23
2022-08-17T21:29:40.282Z,25.40
2022-08-17T21:32:15.884Z,25.48
2022-08-17T21:34:36.877Z,25.57
2022-08-17T21:36:50.739Z,25.61
2022-08-17T21:39:10.116Z,25.58
2022-08-17T21:41:28.636Z,25.64
2022-08-17T21:43:49.586Z,25.74
2022-08-17T21:46:09.421Z,25.78
2022-08-17T21:48:26.037Z,25.78
2022-08-17T21:50:39.957Z,25.78
2022-08-17T21:52:55.675Z,25.78
2022-08-17T21:55:09.072Z,25.88
2022-08-17T21:57:28.545Z,26.00
2022-08-17T21:59:44.853Z,26.13
2022-08-17T22:02:00.306Z,26.17
2022-08-17T22:04:27.815Z,26.23
2022-08-17T22:06:52.604Z,26.20
2022-08-17T22:09:26.934Z,26.28
2022-08-17T22:11:54.337Z,26.41
2022-08-17T22:14:19.230Z,26.49
2022-08-17T22:16:33.976Z,26.55
2022-08-17T22:18:49.109Z,26.59
2022-08-17T22:21:09.506Z,26.64
2022-08-17T22:23:46.947Z,26.71
2022-08-17T22:26:09.514Z,26.72
2022-08-17T22:28:42.111Z,26.72
2022-08-17T22:31:07.313Z,26.84
2022-08-17T22:33:42.677Z,26.89
2022-08-17T22:36:11.465Z,26.89
2022-08-17T22:38:35.345Z,26.92
2022-08-17T22:40:50.921Z,26.91
2022-08-17T22:43:05.512Z,26.89
2022-08-17T22:45:18.786Z,26.67
2022-08-17T22:47:39.970Z,26.58
2022-08-17T22:49:58.675Z,26.50
2022-08-17T22:52:32.338Z,26.41
2022-08-17T22:55:09.428Z,26.31
2022-08-17T22:57:40.393Z,26.05
2022-08-17T22:59:55.656Z,26.07
2022-08-17T23:02:27.703Z,26.15
2022-08-17T23:04:43.318Z,26.31
2022-08-17T23:06:57.235Z,26.46
2022-08-17T23:09:11.553Z,26.31
2022-08-17T23:11:36.933Z,26.22
2022-08-17T23:14:02.226Z,26.30
2022-08-17T23:16:16.150Z,26.29
2022-08-17T23:18:29.679Z,26.27
2022-08-17T23:20:44.499Z,26.24
2022-08-17T23:22:57.696Z,26.32
2022-08-17T23:25:25.723Z,26.46
2022-08-17T23:27:38.830Z,26.56
2022-08-17T23:29:52.096Z,26.53
2022-08-17T23:32:06.036Z,26.48
2022-08-17T23:34:20.144Z,26.45
2022-08-17T23:36:33.644Z,26.44
2022-08-17T23:38:47.970Z,26.42
2022-08-17T23:41:03.031Z,26.44
2022-08-17T23:43:24.723Z,26.47
2022-08-17T23:45:40.008Z,26.48
2022-08-17T23:47:53.370Z,26.37
2022-08-17T23:50:06.689Z,26.25
2022-08-17T23:52:20.798Z,26.11
2022-08-17T23:54:38.764Z,26.01
2022-08-17T23:56:51.764Z,25.96
2022-08-17T23:59:04.982Z,25.94
